Список аэропортов
Фактическая погода:

21 августа, 07:00
Температура: +15°C (+15.0*)
Ветер: западный 2 м/с
Давление: *767 мм
облачно
60 м
дымка
Время (МСК)Темп. СВетерВлажностьДавлениеОблачностьОсадки
03:00+13З, 2 м/с98%1022 гПас прояснениями
04:00+13СЗ, 2 м/с98%1022 гПаоблачно
05:00+14СЗ, 2 м/с97%1023 гПаоблачно
06:00+15СЗ, 2 м/с94%1023 гПаоблачно
07:00+16СЗ, 1 м/с87%1023 гПаоблачно
08:00+19Штиль 73%1023 гПаоблачно
09:00+21СЗ, 1 м/с63%1022 гПас прояснениями
10:00+23СЗ, 2 м/с55%1022 гПамалооблачно
11:00+24СЗ, 2 м/с50%1022 гПаоблачно
12:00+24СЗ, 2 м/с46%1022 гПаоблачно
13:00+24С, 3 м/с46%1022 гПаоблачно
14:00+25С, 2 м/с45%1021 гПаоблачно
15:00+25СЗ, 2 м/с44%1021 гПаоблачно
16:00+24СЗ, 2 м/с45%1021 гПаоблачно
17:00+24СЗ, 2 м/с48%1022 гПаоблачно
18:00+22СЗ, 1 м/с55%1022 гПаоблачно
19:00+20З, 1 м/с71%1022 гПаоблачно
20:00+18Ю, 1 м/с77%1022 гПас прояснениями
21:00+18Ю, 1 м/с82%1022 гПамалооблачно
22:00+17ЮЗ, 1 м/с86%1023 гПамалооблачно
23:00+15ЮЗ, 1 м/с93%1023 гПамалооблачно
22 августа
00:00+14ЮЗ, 1 м/с97%1023 гПамалооблачно
01:00+14ЮЗ, 1 м/с99%1023 гПас прояснениями
02:00+13ЮЗ, 1 м/с99%1023 гПас прояснениями
03:00+13З, 1 м/с97%1024 гПамалооблачно
04:00+13З, 2 м/с94%1024 гПаясно
05:00+14З, 2 м/с94%1024 гПаясно
06:00+16З, 1 м/с91%1024 гПас прояснениямисл. дождь
07:00+18З, 2 м/с86%1024 гПаясно
08:00+21СЗ, 2 м/с77%1024 гПаясно
09:00+24СЗ, 2 м/с66%1024 гПаясно
10:00+26СЗ, 2 м/с58%1024 гПаясно
11:00+28С, 3 м/с51%1024 гПаясно
12:00+27СВ, 2 м/с54%1024 гПас прояснениямидождь
13:00+27ЮВ, 1 м/с56%1024 гПас прояснениямисл. дождь
14:00+27Ю, 1 м/с55%1023 гПас прояснениямисл. дождь
15:00+27Ю, 1 м/с64%1023 гПас прояснениямидождь
16:00+26ЮВ, 1 м/с60%1023 гПас прояснениямидождь
17:00+25В, 2 м/с69%1024 гПас прояснениямидождь
18:00+23В, 1 м/с86%1024 гПас прояснениямидождь
19:00+21В, 1 м/с94%1024 гПаясно
20:00+20В, 1 м/с98%1024 гПаясно
21:00+19В, 1 м/с99%1025 гПаясно
22:00+18В, 1 м/с100%1025 гПаоблачно
23:00+17ЮВ, 1 м/с100%1025 гПаоблачно
23 августа
00:00+16ЮВ, 1 м/с100%1026 гПаоблачно
01:00+16В, 1 м/с100%1026 гПаоблачносл. дождь
02:00+16В, 1 м/с100%1026 гПаоблачно
03:00+15В, 1 м/с100%1027 гПаоблачно